Time;durP1;ratioP1;P1;durP2;ratioP2;P2;SDS_P1;SDS_P2;PMS_P1;PMS_P2;Temp;Humidity;BMP_temperature;BMP_pressure;BME280_temperature;BME280_humidity;BME280_pressure;Samples;Min_cycle;Max_cycle;Signal;HPM_P1;HPM_P2
2023/06/26 00:00:05;;;;;;;7.40;2.78;;;;;;;19.45;79.32;98850.13;4839423;29;20397;-77
2023/06/26 00:02:49;;;;;;;11.43;3.78;;;;;;;19.43;79.45;98842.41;4824639;29;20114;-78
2023/06/26 00:05:34;;;;;;;11.45;3.50;;;;;;;19.15;80.24;98847.03;4835658;29;21502;-78
2023/06/26 00:08:18;;;;;;;11.65;3.38;;;;;;;19.33;79.88;98847.69;4826279;29;20110;-78
2023/06/26 00:11:02;;;;;;;8.05;3.22;;;;;;;19.22;80.14;98846.81;4840235;29;21984;-78
2023/06/26 00:13:47;;;;;;;13.32;4.00;;;;;;;19.24;79.71;98856.13;4840240;29;20626;-78
2023/06/26 00:16:32;;;;;;;7.18;3.08;;;;;;;19.36;79.10;98850.63;4839922;29;20052;-78
2023/06/26 00:19:16;;;;;;;6.95;2.72;;;;;;;19.39;78.66;98857.28;4838647;29;20073;-77
2023/06/26 00:22:00;;;;;;;7.07;3.10;;;;;;;19.24;79.16;98850.81;4826227;29;20057;-78
2023/06/26 00:24:47;;;;;;;8.15;3.80;;;;;;;19.15;79.55;98849.69;4839011;29;20080;-78
2023/06/26 00:27:31;;;;;;;9.90;3.08;;;;;;;18.84;80.53;98860.06;4839650;29;20175;-78
2023/06/26 00:30:15;;;;;;;7.05;2.85;;;;;;;18.92;80.22;98864.94;4833862;29;20053;-77
2023/06/26 00:32:59;;;;;;;6.25;3.13;;;;;;;19.02;79.67;98868.75;4833193;29;20096;-77
2023/06/26 00:35:43;;;;;;;5.45;2.92;;;;;;;18.84;80.22;98881.31;4835620;29;20102;-76
2023/06/26 00:38:27;;;;;;;6.13;2.75;;;;;;;18.91;80.50;98878.47;4830450;29;20085;-77
2023/06/26 00:41:12;;;;;;;6.78;3.35;;;;;;;19.23;79.56;98886.44;4825558;29;20057;-77
2023/06/26 00:43:56;;;;;;;8.02;2.92;;;;;;;19.18;79.62;98880.31;4836863;29;20093;-77
2023/06/26 00:46:40;;;;;;;6.88;2.85;;;;;;;19.23;80.03;98896.31;4834836;29;20091;-77
2023/06/26 00:49:26;;;;;;;6.65;3.10;;;;;;;19.06;80.47;98885.78;4833888;29;20092;-77
2023/06/26 00:52:10;;;;;;;5.68;3.28;;;;;;;18.72;81.35;98891.34;4823541;29;20507;-77
2023/06/26 00:54:55;;;;;;;7.55;3.20;;;;;;;18.72;81.65;98876.19;4838202;29;20038;-76
2023/06/26 00:57:39;;;;;;;5.18;2.92;;;;;;;18.90;81.30;98893.63;4825640;29;20396;-77
2023/06/26 01:00:23;;;;;;;4.90;2.92;;;;;;;19.00;80.87;98884.16;4835921;29;20052;-78
2023/06/26 01:03:07;;;;;;;9.50;2.90;;;;;;;18.98;80.92;98895.84;4836808;29;20057;-77
2023/06/26 01:05:54;;;;;;;5.93;2.97;;;;;;;18.95;80.98;98885.69;4839029;29;20084;-78
2023/06/26 01:08:39;;;;;;;5.47;2.92;;;;;;;18.99;80.64;98886.03;4822938;29;20049;-77
2023/06/26 01:11:23;;;;;;;5.80;3.08;;;;;;;18.97;80.64;98890.78;4824612;29;20133;-78
2023/06/26 01:14:07;;;;;;;8.48;3.83;;;;;;;18.74;81.31;98894.53;4823139;29;20242;-77
2023/06/26 01:16:52;;;;;;;7.93;3.35;;;;;;;18.96;80.96;98897.94;4835410;29;20072;-77
2023/06/26 01:19:36;;;;;;;6.95;2.70;;;;;;;18.75;81.22;98896.16;4832915;29;20451;-77
2023/06/26 01:22:46;;;;;;;4.30;2.60;;;;;;;18.80;81.11;98898.84;4818484;29;20041;-77
2023/06/26 01:25:41;;;;;;;4.43;3.10;;;;;;;18.50;81.61;98900.97;4811307;29;20056;-77
2023/06/26 01:28:27;;;;;;;6.35;3.08;;;;;;;18.46;82.17;98899.84;4837307;29;20052;-77
2023/06/26 01:31:12;;;;;;;4.38;3.10;;;;;;;18.23;82.82;98903.59;4823844;29;20082;-77
2023/06/26 01:33:58;;;;;;;5.07;3.05;;;;;;;18.56;82.28;98904.47;4817144;29;20076;-77
2023/06/26 01:36:44;;;;;;;7.57;3.13;;;;;;;18.60;82.23;98908.22;4838638;29;20596;-77
2023/06/26 01:39:28;;;;;;;6.15;3.78;;;;;;;18.50;82.68;98906.28;4835497;29;20049;-77
2023/06/26 01:42:12;;;;;;;10.13;3.08;;;;;;;18.53;82.62;98908.44;4822735;29;20101;-76
2023/06/26 01:44:57;;;;;;;9.85;3.50;;;;;;;18.56;82.57;98907.13;4836615;29;20036;-77
2023/06/26 01:47:45;;;;;;;6.55;3.08;;;;;;;18.46;82.74;98909.66;4837912;29;20094;-75
2023/06/26 01:50:33;;;;;;;8.18;3.47;;;;;;;18.23;83.76;98911.56;4832215;29;20462;-78
2023/06/26 01:53:21;;;;;;;6.93;4.30;;;;;;;18.04;84.58;98917.19;4823599;29;20037;-78
2023/06/26 01:56:13;;;;;;;10.00;3.28;;;;;;;18.23;84.32;98917.69;4837971;29;20098;-78
2023/06/26 01:58:59;;;;;;;7.97;3.90;;;;;;;18.18;84.74;98919.47;4837048;29;20076;-76
2023/06/26 02:01:44;;;;;;;12.10;3.55;;;;;;;18.08;85.38;98918.31;4836662;29;20045;-76
2023/06/26 02:04:28;;;;;;;5.55;3.13;;;;;;;18.06;85.80;98927.56;4837358;29;20408;-76
2023/06/26 02:07:12;;;;;;;5.45;3.03;;;;;;;18.17;85.14;98918.66;4838771;29;20409;-78
2023/06/26 02:09:56;;;;;;;10.38;3.92;;;;;;;18.32;84.92;98926.03;4835870;29;20446;-77
2023/06/26 02:12:40;;;;;;;7.65;3.30;;;;;;;18.18;85.69;98909.66;4835544;29;20098;-78
2023/06/26 02:15:24;;;;;;;6.30;3.10;;;;;;;18.18;85.17;98914.97;4837034;29;20048;-76
2023/06/26 02:18:08;;;;;;;6.78;3.67;;;;;;;18.13;85.43;98921.03;4834456;29;20103;-77
2023/06/26 02:20:52;;;;;;;6.72;4.30;;;;;;;18.16;85.54;98922.38;4822318;29;20102;-76
2023/06/26 02:23:36;;;;;;;12.25;4.28;;;;;;;18.19;85.63;98921.06;4833385;29;20041;-79
2023/06/26 02:26:20;;;;;;;7.97;3.25;;;;;;;18.11;85.58;98931.09;4838395;29;20437;-76
2023/06/26 02:29:04;;;;;;;8.35;3.50;;;;;;;18.09;85.48;98927.06;4822879;29;20128;-76
2023/06/26 02:31:48;;;;;;;6.47;4.10;;;;;;;18.18;85.80;98925.59;4836012;29;20150;-76
2023/06/26 02:34:33;;;;;;;10.07;3.75;;;;;;;17.99;86.26;98935.69;4836982;29;20112;-76
2023/06/26 02:37:18;;;;;;;8.43;4.13;;;;;;;18.03;86.41;98928.06;4824092;29;20049;-75
2023/06/26 02:40:03;;;;;;;7.00;4.05;;;;;;;18.23;85.86;98933.63;4832905;29;20045;-76
2023/06/26 02:42:47;;;;;;;10.27;4.10;;;;;;;18.08;86.57;98934.25;4837589;29;20107;-75
2023/06/26 02:45:31;;;;;;;6.97;3.28;;;;;;;18.07;86.81;98935.28;4836794;29;20072;-75
2023/06/26 02:48:15;;;;;;;8.05;3.75;;;;;;;18.15;86.45;98927.94;4835925;29;20056;-75
2023/06/26 02:50:59;;;;;;;8.73;3.58;;;;;;;17.96;87.17;98921.03;4838164;29;20053;-76
2023/06/26 02:53:43;;;;;;;9.27;3.67;;;;;;;18.11;86.45;98936.41;4840901;29;20144;-75
2023/06/26 02:56:28;;;;;;;8.82;3.30;;;;;;;18.01;87.08;98936.22;4841085;29;20040;-75
2023/06/26 02:59:13;;;;;;;10.07;4.05;;;;;;;18.22;86.37;98920.56;4836299;29;20072;-76
2023/06/26 03:01:57;;;;;;;8.35;3.80;;;;;;;17.99;86.86;98919.75;4840755;29;20053;-75
2023/06/26 03:04:42;;;;;;;10.60;4.53;;;;;;;18.01;86.91;98924.81;4840653;29;20048;-75
2023/06/26 03:07:26;;;;;;;8.00;4.13;;;;;;;18.06;86.60;98938.97;4839405;29;20120;-77
2023/06/26 03:10:10;;;;;;;9.38;5.07;;;;;;;18.02;87.10;98927.25;4840292;29;20048;-78
2023/06/26 03:12:54;;;;;;;7.07;4.60;;;;;;;18.03;87.81;98933.38;4841448;29;20209;-78
2023/06/26 03:15:38;;;;;;;6.28;4.53;;;;;;;18.01;88.27;98938.09;4837303;29;20143;-78
2023/06/26 03:18:22;;;;;;;9.32;5.15;;;;;;;18.15;87.60;98936.69;4834010;29;20523;-77
2023/06/26 03:21:06;;;;;;;11.88;5.57;;;;;;;18.08;88.33;98952.84;4826827;29;20084;-78
2023/06/26 03:23:51;;;;;;;5.55;5.03;;;;;;;18.03;88.89;98942.13;4840223;29;20049;-77
2023/06/26 03:26:34;;;;;;;9.50;5.53;;;;;;;18.20;88.35;98960.69;4826513;29;20107;-78
2023/06/26 03:29:19;;;;;;;10.18;5.78;;;;;;;18.30;88.10;98954.69;4836478;29;20130;-78
2023/06/26 03:32:03;;;;;;;8.70;5.50;;;;;;;18.26;88.92;98964.19;4839482;29;20049;-77
2023/06/26 03:34:47;;;;;;;7.65;5.30;;;;;;;18.24;89.07;98977.75;4839996;29;20045;-77
2023/06/26 03:37:31;;;;;;;7.85;6.18;;;;;;;18.04;90.15;98972.94;4822836;29;20108;-77
2023/06/26 03:40:15;;;;;;;9.77;5.78;;;;;;;18.44;89.21;98971.06;4825684;29;20133;-77
2023/06/26 03:42:59;;;;;;;9.23;6.15;;;;;;;18.34;89.32;98981.56;4838856;29;20056;-77
2023/06/26 03:45:43;;;;;;;10.35;6.25;;;;;;;18.43;89.36;98980.09;4839105;29;20178;-77
2023/06/26 03:48:27;;;;;;;7.75;5.40;;;;;;;18.40;89.34;98976.06;4834895;29;20049;-77
2023/06/26 03:51:11;;;;;;;12.05;5.70;;;;;;;18.40;89.39;98976.06;4826356;29;20417;-77
2023/06/26 03:53:55;;;;;;;10.25;5.60;;;;;;;18.54;89.03;98981.78;4826121;29;20064;-77
2023/06/26 03:56:39;;;;;;;7.95;5.80;;;;;;;18.45;88.89;98990.44;4824329;29;20392;-78
2023/06/26 03:59:23;;;;;;;7.70;5.65;;;;;;;18.50;89.21;98991.31;4840089;29;20048;-77
2023/06/26 04:02:07;;;;;;;8.00;6.28;;;;;;;18.40;89.26;98997.31;4840706;29;20053;-77
2023/06/26 04:04:52;;;;;;;7.43;5.88;;;;;;;18.42;89.63;98986.44;4825615;29;20131;-77
2023/06/26 04:07:37;;;;;;;9.30;7.10;;;;;;;18.35;89.50;98989.28;4826100;29;20413;-77
2023/06/26 04:10:21;;;;;;;12.50;6.93;;;;;;;18.54;88.96;98996.97;4840091;29;20061;-77
2023/06/26 04:13:05;;;;;;;9.85;6.22;;;;;;;18.56;89.25;98994.84;4838762;29;20507;-77
2023/06/26 04:15:49;;;;;;;8.30;6.25;;;;;;;18.64;89.13;98986.44;4835456;29;20056;-77
2023/06/26 04:18:33;;;;;;;6.95;5.97;;;;;;;18.47;89.61;98999.78;4840380;29;20145;-77
2023/06/26 04:21:17;;;;;;;9.50;5.57;;;;;;;18.51;89.86;99010.75;4839860;29;20405;-78
2023/06/26 04:24:02;;;;;;;7.63;6.30;;;;;;;18.72;89.02;99008.31;4825314;29;20066;-76
2023/06/26 04:26:46;;;;;;;13.38;6.45;;;;;;;18.39;89.53;99006.34;4838116;29;20049;-78
2023/06/26 04:29:30;;;;;;;15.40;5.95;;;;;;;18.49;89.45;99026.13;4839742;29;20044;-78
2023/06/26 04:32:14;;;;;;;8.73;5.50;;;;;;;18.38;89.32;99041.94;4825685;29;20068;-77
2023/06/26 04:34:58;;;;;;;9.18;5.82;;;;;;;18.37;89.61;99043.00;4838738;29;20053;-77
2023/06/26 04:37:42;;;;;;;;;;;;;;;18.47;89.21;99049.47;4840479;29;20125;-77
2023/06/26 04:40:26;;;;;;;11.57;6.20;;;;;;;18.69;88.13;99047.66;4838940;29;19924;-77
2023/06/26 04:43:10;;;;;;;11.20;5.45;;;;;;;18.66;88.18;99058.75;4838380;29;20048;-78
2023/06/26 04:45:54;;;;;;;14.30;5.72;;;;;;;18.89;87.29;99045.47;4822924;29;20103;-77
2023/06/26 04:48:38;;;;;;;9.40;5.40;;;;;;;18.91;86.84;99051.34;4836056;29;20049;-77
2023/06/26 04:51:22;;;;;;;8.88;5.20;;;;;;;18.70;87.12;99038.63;4824460;29;20049;-77
2023/06/26 04:54:08;;;;;;;11.65;5.07;;;;;;;18.99;86.58;99050.94;4824704;29;20103;-77
2023/06/26 04:56:51;;;;;;;8.35;5.05;;;;;;;18.62;86.94;99060.31;4839029;29;20053;-77
2023/06/26 04:59:35;;;;;;;10.50;5.15;;;;;;;18.76;86.27;99057.28;4835078;29;20106;-77
2023/06/26 05:02:19;;;;;;;5.75;5.07;;;;;;;19.09;85.51;99061.66;4836310;29;20582;-79
2023/06/26 05:05:03;;;;;;;7.68;5.38;;;;;;;18.97;86.04;99059.13;4833131;29;20583;-78
2023/06/26 05:07:47;;;;;;;9.60;5.03;;;;;;;18.81;86.41;99060.81;4837625;29;20122;-78
2023/06/26 05:10:31;;;;;;;7.82;4.78;;;;;;;18.95;86.57;99071.88;4837546;29;20556;-77
2023/06/26 05:13:17;;;;;;;9.07;4.93;;;;;;;18.87;87.15;99063.53;4837210;29;20507;-77
2023/06/26 05:16:01;;;;;;;8.05;4.65;;;;;;;19.18;86.62;99058.56;4824750;29;20519;-77
2023/06/26 05:18:45;;;;;;;10.05;4.90;;;;;;;19.44;85.86;99072.91;4835047;29;20057;-78
2023/06/26 05:21:29;;;;;;;12.75;5.40;;;;;;;19.39;85.40;99067.53;4834244;29;20110;-77
2023/06/26 05:24:15;;;;;;;11.90;5.65;;;;;;;18.97;86.37;99075.06;4833901;29;20048;-77
2023/06/26 05:27:00;;;;;;;6.70;4.55;;;;;;;19.13;86.03;99085.91;4834033;29;20112;-76
2023/06/26 05:29:44;;;;;;;10.05;4.65;;;;;;;19.11;85.99;99080.06;4824439;29;20049;-77
2023/06/26 05:32:33;;;;;;;6.35;4.60;;;;;;;19.30;85.86;99093.00;4820448;29;20094;-77
2023/06/26 05:35:18;;;;;;;7.50;4.32;;;;;;;19.51;85.25;99084.16;4837456;29;20045;-77
2023/06/26 05:38:02;;;;;;;7.38;4.25;;;;;;;19.73;84.47;99095.78;4838493;29;20181;-77
2023/06/26 05:40:47;;;;;;;8.77;4.57;;;;;;;19.79;83.77;99100.91;4824933;29;20384;-78
2023/06/26 05:43:31;;;;;;;6.22;4.03;;;;;;;19.72;83.79;99095.00;4836376;29;20044;-78
2023/06/26 05:46:15;;;;;;;6.95;4.20;;;;;;;19.78;83.78;99099.28;4834679;29;20040;-78
2023/06/26 05:48:59;;;;;;;7.15;4.07;;;;;;;19.66;83.56;99112.00;4823092;29;20090;-78
2023/06/26 05:51:43;;;;;;;10.77;4.45;;;;;;;19.76;83.50;99112.06;4830947;29;20514;-78
2023/06/26 05:54:27;;;;;;;7.18;4.57;;;;;;;19.81;83.13;99108.66;4822333;29;20049;-79
2023/06/26 05:57:14;;;;;;;10.52;4.20;;;;;;;20.02;82.43;99098.97;4834351;29;20077;-79
2023/06/26 05:59:58;;;;;;;6.60;4.30;;;;;;;20.00;82.58;99108.28;4832393;29;20110;-79
2023/06/26 06:02:42;;;;;;;6.15;3.92;;;;;;;20.44;81.85;99101.88;4824856;29;20577;-79
2023/06/26 06:05:26;;;;;;;8.43;4.32;;;;;;;20.41;81.28;99111.22;4825204;29;20178;-79
2023/06/26 06:08:10;;;;;;;8.30;5.10;;;;;;;20.39;80.97;99111.47;4837440;29;20053;-81
2023/06/26 06:10:54;;;;;;;;;;;;;;;20.79;80.17;99111.13;4837109;29;20049;-80
2023/06/26 06:13:38;;;;;;;11.00;4.68;;;;;;;20.69;80.19;99120.72;4837059;29;19959;-76
2023/06/26 06:16:22;;;;;;;9.60;4.63;;;;;;;20.32;80.63;99108.25;4833477;29;20129;-77
2023/06/26 06:19:07;;;;;;;8.27;4.50;;;;;;;20.62;80.29;99112.13;4833856;29;20089;-79
2023/06/26 06:21:54;;;;;;;5.57;4.35;;;;;;;20.21;79.94;99109.22;4817526;29;20637;-78
2023/06/26 06:24:38;;;;;;;13.30;5.72;;;;;;;20.12;80.14;99120.38;4837969;29;20045;-78
2023/06/26 06:27:21;;;;;;;13.20;4.70;;;;;;;19.90;79.79;99106.31;4837975;29;20101;-77
2023/06/26 06:30:06;;;;;;;14.02;4.90;;;;;;;19.98;80.33;99113.88;4840257;29;20564;-78
2023/06/26 06:32:52;;;;;;;10.07;5.30;;;;;;;20.53;79.61;99113.69;4834673;29;20052;-78
2023/06/26 06:35:36;;;;;;;9.68;4.80;;;;;;;20.28;79.79;99117.81;4840151;29;20122;-77
2023/06/26 06:38:20;;;;;;;7.90;4.38;;;;;;;20.35;79.35;99107.72;4824019;29;20137;-77
2023/06/26 06:41:04;;;;;;;14.63;4.78;;;;;;;20.53;78.76;99127.03;4833532;29;20590;-77
2023/06/26 06:43:48;;;;;;;11.45;4.40;;;;;;;20.52;78.82;99120.88;4816094;29;20053;-79
2023/06/26 06:46:32;;;;;;;10.68;4.65;;;;;;;20.38;79.04;99122.41;4828338;29;20052;-77
2023/06/26 06:49:16;;;;;;;11.13;4.68;;;;;;;20.26;79.27;99136.72;4836806;29;20045;-80
2023/06/26 06:52:00;;;;;;;9.32;4.38;;;;;;;20.61;77.94;99126.50;4834518;29;20500;-79
2023/06/26 06:55:05;;;;;;;10.82;4.13;;;;;;;20.37;78.75;99137.59;4843719;29;20048;-77
2023/06/26 06:57:50;;;;;;;8.60;3.63;;;;;;;20.98;78.12;99144.31;4845116;29;20106;-78
2023/06/26 07:00:34;;;;;;;7.95;4.20;;;;;;;20.53;77.44;99161.69;4825606;29;20136;-78
2023/06/26 07:03:18;;;;;;;9.77;3.92;;;;;;;20.43;78.17;99154.41;4839531;29;20074;-78
2023/06/26 07:06:03;;;;;;;6.72;4.40;;;;;;;20.88;76.45;99156.81;4837578;29;20128;-78
2023/06/26 07:08:46;;;;;;;8.07;3.70;;;;;;;20.45;76.51;99160.28;4841345;29;20056;-78
2023/06/26 07:11:30;;;;;;;10.25;5.15;;;;;;;20.13;77.01;99153.13;4838529;29;20098;-78
2023/06/26 07:14:14;;;;;;;10.98;4.20;;;;;;;20.38;76.35;99144.53;4841074;29;20057;-78
2023/06/26 07:16:58;;;;;;;7.25;3.85;;;;;;;20.29;76.03;99162.06;4835555;29;20146;-78
2023/06/26 07:19:46;;;;;;;11.50;4.38;;;;;;;20.14;76.04;99161.94;4838822;29;20193;-78
2023/06/26 07:22:30;;;;;;;12.27;4.30;;;;;;;20.30;76.28;99169.00;4839946;29;20106;-78
2023/06/26 07:25:14;;;;;;;11.02;4.05;;;;;;;20.66;76.37;99169.25;4840689;29;20404;-78
2023/06/26 07:27:58;;;;;;;9.00;4.03;;;;;;;20.38;74.63;99175.72;4836562;29;20530;-78
2023/06/26 07:30:42;;;;;;;11.00;4.05;;;;;;;20.50;75.55;99178.19;4839621;29;20131;-85
2023/06/26 07:33:26;;;;;;;12.18;3.50;;;;;;;21.00;74.23;99188.63;4837192;29;20475;-87
2023/06/26 07:36:10;;;;;;;10.13;4.28;;;;;;;20.97;73.43;99176.63;4841656;29;20080;-85
2023/06/26 07:38:54;;;;;;;12.10;4.22;;;;;;;21.25;72.83;99179.91;4836299;29;20126;-86
2023/06/26 07:41:38;;;;;;;38.08;6.50;;;;;;;21.46;72.16;99185.31;4840837;29;20060;-84
2023/06/26 07:44:22;;;;;;;7.72;3.28;;;;;;;21.39;71.62;99182.91;4838708;29;20405;-85
2023/06/26 07:47:06;;;;;;;31.90;6.07;;;;;;;21.61;71.76;99184.53;4827015;29;20115;-87
2023/06/26 07:49:50;;;;;;;9.35;3.60;;;;;;;21.69;71.59;99200.88;4839311;29;20408;-85
2023/06/26 07:52:34;;;;;;;9.55;2.92;;;;;;;21.45;70.51;99208.56;4840975;29;20098;-86
2023/06/26 07:55:18;;;;;;;9.88;3.38;;;;;;;21.49;70.85;99190.94;4840630;29;20045;-86
2023/06/26 07:58:02;;;;;;;7.00;2.92;;;;;;;22.02;70.06;99197.19;4840834;29;20052;-87
2023/06/26 08:00:46;;;;;;;9.50;3.80;;;;;;;22.09;68.91;99190.53;4826919;29;20405;-86
2023/06/26 08:03:30;;;;;;;8.27;3.00;;;;;;;22.05;66.39;99188.66;4840493;29;20041;-85
2023/06/26 08:06:14;;;;;;;48.80;7.90;;;;;;;22.21;67.86;99195.59;4840717;29;20048;-85
2023/06/26 08:08:58;;;;;;;11.02;3.45;;;;;;;22.52;67.75;99192.13;4838447;29;20048;-86
2023/06/26 08:11:42;;;;;;;8.82;3.20;;;;;;;21.78;66.52;99211.84;4840848;29;20059;-86
2023/06/26 08:14:27;;;;;;;10.60;3.38;;;;;;;21.61;66.78;99195.22;4838483;29;20693;-87
2023/06/26 08:17:11;;;;;;;13.25;3.67;;;;;;;22.18;65.63;99204.16;4826026;29;20076;-86
2023/06/26 08:19:55;;;;;;;8.48;3.53;;;;;;;21.88;66.26;99208.41;4826995;29;20208;-85
2023/06/26 08:22:40;;;;;;;7.13;3.30;;;;;;;22.13;66.22;99195.34;4836428;29;20057;-86
2023/06/26 08:25:24;;;;;;;8.75;3.65;;;;;;;22.10;66.00;99205.50;4839390;29;20118;-87
2023/06/26 08:28:08;;;;;;;6.28;2.90;;;;;;;21.60;66.50;99194.44;4835967;29;20049;-86
2023/06/26 08:30:52;;;;;;;16.42;4.85;;;;;;;22.46;65.10;99203.88;4838265;29;20049;-86
2023/06/26 08:33:37;;;;;;;10.93;3.65;;;;;;;23.10;64.80;99196.25;4838214;29;20109;-86
2023/06/26 08:36:20;;;;;;;8.40;2.60;;;;;;;22.79;62.20;99197.16;4838007;29;20405;-85
2023/06/26 08:39:05;;;;;;;7.13;2.75;;;;;;;22.76;62.02;99210.25;4822991;29;20128;-83
2023/06/26 08:41:49;;;;;;;6.93;3.00;;;;;;;22.99;62.60;99211.53;4834574;29;20060;-88
2023/06/26 08:44:33;;;;;;;8.05;3.47;;;;;;;22.95;62.41;99227.34;4835472;29;20279;-87
2023/06/26 08:47:18;;;;;;;8.45;3.72;;;;;;;22.70;63.19;99219.38;4837386;29;20049;-86
2023/06/26 08:50:12;;;;;;;5.43;3.50;;;;;;;23.11;63.25;99213.91;4825985;29;20044;-86
2023/06/26 08:53:04;;;;;;;8.55;3.80;;;;;;;22.86;62.68;99223.63;4823132;29;20069;-89
2023/06/26 08:55:52;;;;;;;12.15;3.63;;;;;;;22.71;63.62;99223.66;4837958;29;20454;-87
2023/06/26 08:58:37;;;;;;;12.43;4.00;;;;;;;23.66;62.56;99226.53;4840684;29;20456;-87
2023/06/26 09:01:23;;;;;;;9.90;3.45;;;;;;;24.18;61.62;99223.53;4838437;29;20052;-89
2023/06/26 09:04:09;;;;;;;7.88;3.17;;;;;;;24.18;61.53;99228.91;4841261;29;20045;-89
2023/06/26 09:06:54;;;;;;;13.20;3.85;;;;;;;24.24;60.32;99220.50;4839861;29;20091;-85
2023/06/26 09:09:38;;;;;;;10.07;3.50;;;;;;;23.71;61.11;99221.13;4835814;29;20395;-86
2023/06/26 09:12:22;;;;;;;9.73;3.25;;;;;;;24.10;59.83;99219.59;4840283;29;20264;-88
2023/06/26 09:15:07;;;;;;;12.18;3.58;;;;;;;23.99;59.25;99221.50;4839979;29;20061;-87
2023/06/26 09:17:57;;;;;;;8.70;3.35;;;;;;;23.63;59.16;99222.53;4840506;29;20057;-86
2023/06/26 09:20:41;;;;;;;6.47;2.67;;;;;;;23.38;60.12;99220.78;4826128;29;20052;-87
2023/06/26 09:23:26;;;;;;;8.30;2.90;;;;;;;22.95;61.60;99221.97;4826415;29;20101;-85
2023/06/26 09:26:11;;;;;;;17.60;5.38;;;;;;;22.80;61.04;99222.84;4837454;29;20052;-85
2023/06/26 09:28:57;;;;;;;9.55;3.42;;;;;;;22.75;61.02;99222.84;4839915;29;20098;-85
2023/06/26 09:31:41;;;;;;;13.80;3.00;;;;;;;22.85;61.21;99230.06;4838885;29;20053;-86
2023/06/26 09:34:32;;;;;;;18.65;3.92;;;;;;;22.99;60.57;99222.25;4835021;29;20105;-86
2023/06/26 09:37:17;;;;;;;8.50;3.10;;;;;;;23.53;59.70;99225.28;4838490;29;20049;-87
2023/06/26 09:40:01;;;;;;;7.72;2.85;;;;;;;23.32;59.02;99227.25;4840230;29;20040;-86
2023/06/26 09:42:45;;;;;;;7.57;2.80;;;;;;;23.98;59.09;99229.81;4833884;29;20594;-86
2023/06/26 09:45:30;;;;;;;4.68;2.17;;;;;;;23.36;57.53;99231.78;4836190;29;20040;-85
2023/06/26 09:48:17;;;;;;;7.78;2.33;;;;;;;23.38;57.46;99237.66;4826478;29;20539;-86
2023/06/26 09:51:01;;;;;;;11.27;2.47;;;;;;;23.95;56.52;99225.81;4839745;29;20064;-86
2023/06/26 09:53:45;;;;;;;10.23;2.65;;;;;;;24.35;57.04;99236.53;4840137;29;20110;-88
2023/06/26 09:56:30;;;;;;;8.15;2.63;;;;;;;24.62;55.34;99233.34;4838830;29;20565;-86
2023/06/26 09:59:15;;;;;;;5.28;2.60;;;;;;;24.41;55.95;99231.94;4839958;29;20106;-87
2023/06/26 10:02:00;;;;;;;4.75;2.55;;;;;;;24.54;54.96;99239.31;4840147;29;20174;-88
2023/06/26 10:04:45;;;;;;;4.60;2.63;;;;;;;24.61;55.27;99241.66;4842208;29;20049;-87
2023/06/26 10:07:29;;;;;;;4.80;2.10;;;;;;;25.22;55.41;99252.84;4839803;29;20052;-86
2023/06/26 10:10:16;;;;;;;4.03;2.63;;;;;;;24.67;55.52;99249.38;4843449;29;20049;-85
2023/06/26 10:13:07;;;;;;;9.88;2.67;;;;;;;23.63;57.13;99256.56;4838295;29;20111;-86
2023/06/26 10:15:53;;;;;;;7.28;2.58;;;;;;;23.34;58.82;99252.69;4843484;29;20185;-86
2023/06/26 10:18:39;;;;;;;8.18;2.42;;;;;;;23.40;57.83;99253.47;4843846;29;20053;-86
2023/06/26 10:21:26;;;;;;;5.45;2.40;;;;;;;23.18;57.88;99251.09;4828703;29;20049;-86
2023/06/26 10:24:13;;;;;;;3.75;2.30;;;;;;;23.29;57.12;99255.38;4829517;29;20123;-86
2023/06/26 10:27:16;;;;;;;9.13;2.40;;;;;;;22.99;57.96;99272.28;4839769;29;20059;-84
2023/06/26 10:30:06;;;;;;;6.55;2.70;;;;;;;22.95;58.32;99270.16;4843012;29;20045;-85
2023/06/26 10:32:51;;;;;;;8.88;2.67;;;;;;;22.89;57.84;99265.91;4841112;29;20504;-87
2023/06/26 10:35:43;;;;;;;10.77;3.00;;;;;;;23.38;58.07;99260.94;4841782;29;20049;-86
2023/06/26 10:38:51;;;;;;;6.85;2.70;;;;;;;23.43;56.02;99269.00;4841819;29;20102;-86
2023/06/26 10:41:42;;;;;;;10.43;2.63;;;;;;;23.10;56.55;99255.97;4841636;29;20544;-87
2023/06/26 10:44:26;;;;;;;8.13;2.53;;;;;;;23.23;56.29;99264.47;4840762;29;20103;-82
2023/06/26 10:47:12;;;;;;;4.10;2.20;;;;;;;23.55;57.12;99265.97;4840368;29;20116;-80
2023/06/26 10:50:15;;;;;;;5.63;2.35;;;;;;;23.78;55.92;99266.41;4840741;29;20400;-80
2023/06/26 10:53:13;;;;;;;4.93;2.67;;;;;;;24.19;55.33;99282.25;4838722;29;20524;-85
2023/06/26 10:56:03;;;;;;;12.18;2.85;;;;;;;23.85;55.78;99282.97;4825745;29;20069;-86
2023/06/26 10:58:48;;;;;;;5.85;2.10;;;;;;;23.68;57.02;99272.63;4824716;29;20049;-84
2023/06/26 11:01:40;;;;;;;15.45;3.28;;;;;;;23.58;56.79;99286.03;4840905;29;20178;-83
2023/06/26 11:04:45;;;;;;;4.65;2.20;;;;;;;23.49;57.27;99278.59;4840447;29;20507;-83
2023/06/26 11:07:29;;;;;;;5.90;2.40;;;;;;;23.48;57.65;99282.34;4834895;29;20106;-85
2023/06/26 11:10:18;;;;;;;6.13;2.25;;;;;;;23.47;57.66;99288.78;4837533;29;20044;-85
2023/06/26 11:13:05;;;;;;;8.00;2.50;;;;;;;23.58;58.42;99289.53;4840660;29;20146;-87
2023/06/26 11:15:50;;;;;;;4.53;2.42;;;;;;;23.08;59.40;99278.72;4825776;29;20538;-85
2023/06/26 11:18:34;;;;;;;19.00;3.53;;;;;;;24.12;56.92;99268.38;4841710;29;20106;-86
2023/06/26 11:21:22;;;;;;;9.50;2.55;;;;;;;23.42;56.57;99278.09;4828021;29;20106;-86
2023/06/26 11:24:07;;;;;;;5.13;2.20;;;;;;;23.71;55.94;99282.00;4842252;29;20045;-85
2023/06/26 11:26:52;;;;;;;2.92;2.08;;;;;;;24.13;55.20;99279.88;4825279;29;20125;-86
2023/06/26 11:29:37;;;;;;;6.07;2.10;;;;;;;24.58;55.41;99295.91;4827829;29;20117;-84
2023/06/26 11:32:21;;;;;;;8.10;2.50;;;;;;;24.72;54.22;99298.72;4838367;29;20745;-86
2023/06/26 11:35:06;;;;;;;4.18;2.20;;;;;;;24.27;54.67;99301.50;4827927;29;20099;-85
2023/06/26 11:37:54;;;;;;;4.30;2.70;;;;;;;24.38;55.23;99300.34;4828314;29;20557;-84
2023/06/26 11:40:38;;;;;;;15.93;3.47;;;;;;;24.38;54.43;99308.41;4825404;29;20523;-85
2023/06/26 11:43:24;;;;;;;5.30;2.40;;;;;;;24.64;54.93;99309.00;4837515;29;20048;-83
2023/06/26 11:46:08;;;;;;;5.03;2.40;;;;;;;25.17;53.35;99312.00;4822559;29;20045;-87
2023/06/26 11:48:52;;;;;;;6.40;1.95;;;;;;;25.24;52.57;99324.03;4838180;29;20049;-85
2023/06/26 11:51:36;;;;;;;4.03;2.15;;;;;;;25.19;53.33;99331.31;4839493;29;20148;-85
2023/06/26 11:54:25;;;;;;;4.68;2.42;;;;;;;25.12;52.87;99330.88;4838633;29;20121;-86
2023/06/26 11:57:14;;;;;;;5.75;3.05;;;;;;;24.92;53.44;99343.41;4837703;29;20401;-85
2023/06/26 12:00:10;;;;;;;6.63;3.03;;;;;;;25.64;52.96;99333.81;4836553;29;20048;-84
2023/06/26 12:02:54;;;;;;;8.32;2.67;;;;;;;26.03;52.58;99343.53;4825815;29;20079;-85
2023/06/26 12:05:38;;;;;;;4.03;2.38;;;;;;;26.04;52.75;99355.06;4837921;29;20404;-86
2023/06/26 12:08:22;;;;;;;7.20;2.70;;;;;;;25.73;52.75;99361.63;4824928;29;20515;-85
2023/06/26 12:11:07;;;;;;;6.25;2.53;;;;;;;25.43;52.76;99352.84;4826377;29;20138;-84
2023/06/26 12:13:52;;;;;;;5.03;2.40;;;;;;;25.48;52.73;99338.59;4837520;29;20049;-85
2023/06/26 12:16:37;;;;;;;4.95;2.25;;;;;;;25.07;52.47;99345.97;4834842;29;20091;-85
2023/06/26 12:19:28;;;;;;;4.25;2.40;;;;;;;24.79;52.15;99339.50;4839575;29;20044;-85
2023/06/26 12:22:12;;;;;;;8.13;2.50;;;;;;;24.62;52.08;99347.91;4839580;29;20409;-85
2023/06/26 12:24:56;;;;;;;6.35;2.78;;;;;;;24.95;52.79;99348.22;4833410;29;20041;-85
2023/06/26 12:27:41;;;;;;;6.30;2.30;;;;;;;25.20;52.47;99349.84;4835634;29;20056;-85
2023/06/26 12:30:25;;;;;;;4.85;2.30;;;;;;;25.00;53.50;99363.50;4825964;29;20060;-85
2023/06/26 12:33:15;;;;;;;9.00;2.67;;;;;;;25.37;51.75;99348.63;4823370;29;20101;-86
2023/06/26 12:36:00;;;;;;;8.27;2.60;;;;;;;25.10;52.23;99358.00;4838582;29;20133;-86
2023/06/26 12:38:46;;;;;;;5.47;2.90;;;;;;;24.79;53.18;99364.47;4836154;29;20082;-85
2023/06/26 12:41:30;;;;;;;6.35;2.75;;;;;;;24.88;53.83;99359.28;4840238;29;20057;-86
2023/06/26 12:44:24;;;;;;;4.85;2.35;;;;;;;24.48;55.21;99361.19;4837230;29;20045;-79
2023/06/26 12:47:14;;;;;;;9.80;2.67;;;;;;;23.93;57.08;99380.78;4835372;29;20057;-80
2023/06/26 12:49:58;;;;;;;6.57;2.33;;;;;;;24.07;56.48;99363.03;4835273;29;20080;-80
2023/06/26 12:52:42;;;;;;;6.25;2.30;;;;;;;24.34;55.85;99367.16;4821918;29;20133;-80
2023/06/26 12:55:27;;;;;;;11.77;2.60;;;;;;;24.35;55.89;99368.75;4834383;29;20057;-80